Kalam Weather



Kalam's Current Weather

Temprature 21.73o clear sky

clear sky

Rain: 0 %

Min Temprature21.73o
Max Temprature21.73o
Humidity60
Wind Speed1.88 m/h
Sun Rise05:27:33
Sun Set19:01:41
Current Time: 13-Aug-2020 19:02:20
Lat/Lon: 35.48, 72.58




Kalam's Geo Location



Kalam's Weather Forecast

Time Overall Temp Min Temp Max Temp Humidity Wind Speed Rain
13-Aug-2020 (Thu)
20:00:00 clear sky 23.250 20.540 23.250 53 1.22 m/h 0 %
23:00:00 scattered clouds 21.890 20.810 21.890 55 1.66 m/h 0 %
14-Aug-2020 (Fri)
02:00:00 light rain 21.020 20.690 21.020 55 0.99 m/h 15 %
05:00:00 broken clouds 19.080 19.030 19.080 57 0.64 m/h 0 %
08:00:00 few clouds 22.270 22.270 22.270 47 0.85 m/h 0 %
11:00:00 few clouds 26.800 26.800 26.800 35 2.19 m/h 0 %
14:00:00 light rain 27.230 27.230 27.230 40 3.7 m/h 37 %
17:00:00 light rain 24.950 24.950 24.950 50 3 m/h 76 %
20:00:00 light rain 21.430 21.430 21.430 61 1.36 m/h 20 %
23:00:00 broken clouds 19.950 19.950 19.950 62 1.55 m/h 0 %
15-Aug-2020 (Sat)
02:00:00 broken clouds 19.610 19.610 19.610 61 1.18 m/h 0 %
05:00:00 broken clouds 18.470 18.470 18.470 59 0.69 m/h 0 %
08:00:00 few clouds 22.790 22.790 22.790 44 0.45 m/h 0 %
11:00:00 clear sky 27.830 27.830 27.830 26 2.09 m/h 0 %
14:00:00 clear sky 29.560 29.560 29.560 26 3.25 m/h 0 %
17:00:00 light rain 26.880 26.880 26.880 42 3.48 m/h 11 %
20:00:00 light rain 21.310 21.310 21.310 63 1.03 m/h 22 %
23:00:00 few clouds 20.510 20.510 20.510 61 1.13 m/h 0 %
16-Aug-2020 (Sun)
02:00:00 scattered clouds 18.620 18.620 18.620 61 0.64 m/h 0 %
05:00:00 scattered clouds 17.150 17.150 17.150 61 0.39 m/h 0 %
08:00:00 clear sky 23.870 23.870 23.870 37 0.14 m/h 0 %
11:00:00 clear sky 29.360 29.360 29.360 24 1.94 m/h 0 %
14:00:00 clear sky 30.970 30.970 30.970 26 2.97 m/h 0 %
17:00:00 light rain 27.910 27.910 27.910 43 3.02 m/h 29 %
20:00:00 light rain 22.190 22.190 22.190 63 1.4 m/h 155 %
23:00:00 light rain 21.560 21.560 21.560 64 1.28 m/h 15 %
17-Aug-2020 (Mon)
02:00:00 broken clouds 21.230 21.230 21.230 59 1.15 m/h 0 %
05:00:00 broken clouds 18.470 18.470 18.470 60 0.43 m/h 0 %
08:00:00 clear sky 24.270 24.270 24.270 42 0.99 m/h 0 %
11:00:00 clear sky 29.170 29.170 29.170 27 2.26 m/h 0 %
14:00:00 clear sky 30.280 30.280 30.280 30 3.72 m/h 0 %
17:00:00 light rain 26.040 26.040 26.040 50 3.32 m/h 97 %
20:00:00 light rain 22.050 22.050 22.050 61 1.67 m/h 96 %
23:00:00 light rain 20.860 20.860 20.860 61 1.35 m/h 53 %
18-Aug-2020 (Tue)
02:00:00 scattered clouds 19.120 19.120 19.120 63 0.66 m/h 0 %
05:00:00 scattered clouds 18.390 18.390 18.390 62 0.52 m/h 0 %
08:00:00 scattered clouds 22.190 22.190 22.190 52 1.02 m/h 0 %
11:00:00 light rain 27.300 27.300 27.300 35 2.54 m/h 10 %
14:00:00 light rain 28.640 28.640 28.640 33 4.11 m/h 28 %
17:00:00 light rain 25.540 25.540 25.540 43 3.82 m/h 50 %

Famous Cities (60)